Time;durP1;ratioP1;P1;durP2;ratioP2;P2;SDS_P1;SDS_P2;PMS_P1;PMS_P2;Temp;Humidity;BMP_temperature;BMP_pressure;BME280_temperature;BME280_humidity;BME280_pressure;Samples;Min_cycle;Max_cycle;Signal;HPM_P1;HPM_P2
2023/12/07 00:00:10;;;;;;;4.40;4.00;;;;;;;16.47;53.34;98248.52;105478;1258;61276;-34
2023/12/07 00:02:37;;;;;;;4.50;4.00;;;;;;;16.47;53.24;98248.22;105577;1258;73343;-34
2023/12/07 00:05:05;;;;;;;4.50;3.60;;;;;;;16.46;53.31;98250.83;105139;1261;65554;-34
2023/12/07 00:07:32;;;;;;;3.90;3.40;;;;;;;16.46;53.36;98251.59;105444;1259;72402;-34
2023/12/07 00:10:00;;;;;;;4.50;4.10;;;;;;;16.46;53.28;98255.92;105139;1262;61565;-34
2023/12/07 00:12:28;;;;;;;3.90;3.40;;;;;;;16.45;53.34;98252.26;105196;1259;61290;-34
2023/12/07 00:14:55;;;;;;;4.40;4.00;;;;;;;16.44;53.28;98260.81;105322;1262;73353;-34
2023/12/07 00:17:22;;;;;;;4.20;3.80;;;;;;;16.44;53.25;98265.30;105307;1262;66202;-34
2023/12/07 00:19:50;;;;;;;4.30;3.90;;;;;;;16.45;53.33;98272.11;105119;1260;72726;-34
2023/12/07 00:22:18;;;;;;;5.30;4.00;;;;;;;16.44;53.31;98270.08;105459;1261;61175;-34
2023/12/07 00:24:45;;;;;;;4.20;3.80;;;;;;;16.44;53.30;98271.46;105527;1259;61266;-34
2023/12/07 00:27:12;;;;;;;4.40;4.00;;;;;;;16.44;53.22;98274.23;105433;1257;75083;-34
2023/12/07 00:29:40;;;;;;;4.90;3.80;;;;;;;16.44;53.36;98276.17;105590;1261;66085;-34
2023/12/07 00:32:08;;;;;;;4.10;3.70;;;;;;;16.44;53.27;98277.03;105552;1257;72584;-34
2023/12/07 00:34:35;;;;;;;4.20;3.80;;;;;;;16.44;53.26;98279.27;105400;1260;61250;-34
2023/12/07 00:37:03;;;;;;;4.20;3.80;;;;;;;16.44;53.15;98278.02;105338;1260;61154;-34
2023/12/07 00:39:30;;;;;;;4.50;3.60;;;;;;;16.43;53.18;98279.17;105387;1258;74640;-34
2023/12/07 00:41:58;;;;;;;4.10;3.30;;;;;;;16.43;53.19;98278.85;105225;1261;67218;-34
2023/12/07 00:44:25;;;;;;;4.10;3.70;;;;;;;16.43;53.14;98278.85;105193;1261;73050;-34
2023/12/07 00:46:52;;;;;;;4.50;4.00;;;;;;;16.43;53.20;98282.33;105141;1261;61323;-34
2023/12/07 00:49:19;;;;;;;4.20;3.80;;;;;;;16.44;53.22;98281.87;105378;1262;61247;-34
2023/12/07 00:51:47;;;;;;;5.10;4.10;;;;;;;16.43;53.19;98274.91;105150;1257;74650;-35
2023/12/07 00:54:15;;;;;;;3.90;3.60;;;;;;;16.43;53.13;98279.67;105498;1259;66248;-33
2023/12/07 00:56:42;;;;;;;3.90;3.50;;;;;;;16.43;53.10;98282.54;105670;1258;72301;-35
2023/12/07 00:59:09;;;;;;;5.50;3.80;;;;;;;16.43;53.18;98284.00;105601;1261;61257;-34
2023/12/07 01:01:38;;;;;;;4.20;3.80;;;;;;;16.43;53.10;98284.17;105601;1257;61255;-33
2023/12/07 01:04:06;;;;;;;4.40;3.70;;;;;;;16.43;53.10;98281.61;105394;1262;74733;-34
2023/12/07 01:06:33;;;;;;;4.40;4.00;;;;;;;16.42;53.14;98284.52;105278;1260;64472;-35
2023/12/07 01:09:01;;;;;;;3.90;3.60;;;;;;;16.42;53.14;98282.89;105316;1262;72633;-35
2023/12/07 01:11:28;;;;;;;4.60;3.80;;;;;;;16.42;53.12;98276.24;105312;1261;61324;-35
2023/12/07 01:13:55;;;;;;;3.90;3.50;;;;;;;16.42;53.14;98279.27;105418;1260;61337;-35
2023/12/07 01:16:24;;;;;;;3.80;3.50;;;;;;;16.41;53.13;98277.69;105490;1261;74416;-35
2023/12/07 01:18:52;;;;;;;4.10;3.70;;;;;;;16.42;53.09;98275.45;105510;1259;65565;-33
2023/12/07 01:21:19;;;;;;;3.90;3.60;;;;;;;16.41;53.08;98269.25;105476;1259;72656;-34
2023/12/07 01:23:46;;;;;;;4.20;3.60;;;;;;;16.41;53.11;98262.45;105148;1257;61243;-34
2023/12/07 01:26:16;;;;;;;4.10;3.70;;;;;;;16.41;53.06;98264.07;105213;1257;61371;-35
2023/12/07 01:28:43;;;;;;;4.40;4.00;;;;;;;16.41;53.04;98262.67;105239;1262;74396;-34
2023/12/07 01:31:11;;;;;;;3.90;3.60;;;;;;;16.41;53.12;98265.16;105504;1261;66197;-34
2023/12/07 01:33:38;;;;;;;4.50;3.80;;;;;;;16.41;52.96;98260.98;105171;1259;72620;-34
2023/12/07 01:36:06;;;;;;;4.40;4.00;;;;;;;16.41;52.98;98263.21;105403;1261;61187;-35
2023/12/07 01:38:34;;;;;;;4.20;3.70;;;;;;;16.40;53.02;98260.32;105334;1261;61293;-34
2023/12/07 01:41:01;;;;;;;4.30;3.90;;;;;;;16.40;53.08;98259.17;105624;1259;74573;-34
2023/12/07 01:43:28;;;;;;;4.10;3.50;;;;;;;16.40;53.05;98255.50;105523;1260;64980;-34
2023/12/07 01:45:57;;;;;;;4.60;3.50;;;;;;;16.40;52.99;98252.74;105590;1261;72529;-34
2023/12/07 01:48:28;;;;;;;3.80;3.50;;;;;;;16.40;52.99;98251.34;105597;1262;61380;-34
2023/12/07 01:50:56;;;;;;;4.10;3.70;;;;;;;16.40;52.97;98251.50;105231;1261;61446;-34
2023/12/07 01:53:24;;;;;;;4.20;3.80;;;;;;;16.40;52.97;98244.31;105196;1264;74604;-34
2023/12/07 01:55:52;;;;;;;4.10;3.70;;;;;;;16.39;52.97;98246.92;105389;1261;65845;-34
2023/12/07 01:58:19;;;;;;;4.80;3.70;;;;;;;16.39;53.03;98246.21;105181;1259;72529;-34
2023/12/07 02:00:47;;;;;;;4.40;3.70;;;;;;;16.39;52.98;98249.94;105219;1257;61361;-34
2023/12/07 02:03:14;;;;;;;4.00;3.60;;;;;;;16.39;52.98;98251.02;105170;1259;62043;-34
2023/12/07 02:05:43;;;;;;;4.00;3.70;;;;;;;16.39;52.88;98252.34;105207;1260;74588;-34
2023/12/07 02:08:10;;;;;;;4.10;3.70;;;;;;;16.39;52.98;98254.55;105341;1258;64934;-34
2023/12/07 02:10:37;;;;;;;3.90;3.50;;;;;;;16.39;52.90;98253.32;105130;1262;72608;-34
2023/12/07 02:13:05;;;;;;;4.40;4.00;;;;;;;16.39;52.93;98255.64;105215;1262;61348;-34
2023/12/07 02:15:32;;;;;;;4.80;3.90;;;;;;;16.38;52.95;98254.54;105888;1257;61114;-34
2023/12/07 02:18:22;;;;;;;3.70;3.40;;;;;;;16.39;52.92;98254.48;105403;1257;73384;-34
2023/12/07 02:20:53;;;;;;;4.10;3.70;;;;;;;16.38;52.97;98257.01;105370;1261;66262;-34
2023/12/07 02:23:20;;;;;;;4.00;3.60;;;;;;;16.38;52.94;98251.25;105194;1261;72898;-33
2023/12/07 02:26:51;;;;;;;4.00;3.60;;;;;;;16.38;52.89;98252.44;105066;1266;61222;-35
2023/12/07 02:29:18;;;;;;;3.40;3.10;;;;;;;16.38;52.89;98255.58;105487;1258;61317;-34
2023/12/07 02:31:46;;;;;;;4.10;3.60;;;;;;;16.37;52.86;98260.12;105429;1261;74663;-34
2023/12/07 02:34:13;;;;;;;4.10;3.70;;;;;;;16.37;52.93;98262.98;105403;1261;66358;-34
2023/12/07 02:36:41;;;;;;;3.80;3.30;;;;;;;16.37;52.86;98261.90;105230;1261;73041;-34
2023/12/07 02:39:09;;;;;;;4.00;3.50;;;;;;;16.37;52.97;98260.52;105101;1263;61241;-34
2023/12/07 02:41:36;;;;;;;4.20;3.70;;;;;;;16.37;52.90;98258.95;105266;1264;61560;-34
2023/12/07 02:44:03;;;;;;;4.30;3.50;;;;;;;16.38;52.93;98260.59;105277;1260;74718;-34
2023/12/07 02:46:31;;;;;;;3.90;3.50;;;;;;;16.37;52.85;98257.88;105267;1265;66259;-34
2023/12/07 02:48:58;;;;;;;4.30;3.90;;;;;;;16.37;52.88;98260.95;105292;1257;72628;-33
2023/12/07 02:51:26;;;;;;;3.70;3.40;;;;;;;16.37;52.91;98261.05;105562;1262;61213;-33
2023/12/07 02:53:53;;;;;;;4.10;3.50;;;;;;;16.36;52.77;98262.88;105616;1261;61276;-34
2023/12/07 02:56:20;;;;;;;4.40;3.60;;;;;;;16.36;52.86;98263.03;105564;1261;74638;-35
2023/12/07 02:58:48;;;;;;;4.10;3.60;;;;;;;16.36;52.82;98263.95;105166;1263;65699;-34
2023/12/07 03:01:15;;;;;;;3.90;3.50;;;;;;;16.36;52.90;98271.05;105423;1258;72523;-34
2023/12/07 03:03:43;;;;;;;3.70;3.40;;;;;;;16.36;52.89;98265.80;105265;1272;61241;-34
2023/12/07 03:06:10;;;;;;;4.20;3.60;;;;;;;16.36;52.83;98264.24;105579;1261;61241;-34
2023/12/07 03:08:37;;;;;;;4.00;3.60;;;;;;;16.36;52.88;98262.33;105535;1261;74362;-33
2023/12/07 03:11:05;;;;;;;4.20;3.80;;;;;;;16.36;52.75;98264.46;105251;1264;65851;-34
2023/12/07 03:13:32;;;;;;;4.00;3.60;;;;;;;16.36;52.78;98259.21;105511;1261;72420;-34
2023/12/07 03:16:00;;;;;;;3.40;3.10;;;;;;;16.36;52.74;98258.08;105314;1261;61240;-34
2023/12/07 03:18:27;;;;;;;4.30;3.80;;;;;;;16.36;52.80;98257.52;105419;1261;61392;-34
2023/12/07 03:20:54;;;;;;;3.90;3.50;;;;;;;16.35;52.77;98255.71;105539;1261;74450;-34
2023/12/07 03:23:22;;;;;;;4.10;3.60;;;;;;;16.36;52.73;98259.59;105575;1262;66056;-34
2023/12/07 03:25:49;;;;;;;3.90;3.60;;;;;;;16.35;52.78;98260.73;105531;1257;72311;-34
2023/12/07 03:28:16;;;;;;;4.00;3.60;;;;;;;16.35;52.71;98260.04;105424;1263;61276;-34
2023/12/07 03:30:44;;;;;;;4.50;3.60;;;;;;;16.35;52.88;98257.33;105440;1259;61353;-35
2023/12/07 03:33:11;;;;;;;3.90;3.50;;;;;;;16.36;52.76;98261.92;105264;1262;74640;-34
2023/12/07 03:35:39;;;;;;;4.10;3.70;;;;;;;16.35;52.79;98251.52;105515;1263;66261;-34
2023/12/07 03:38:06;;;;;;;4.40;3.40;;;;;;;16.35;52.69;98251.45;105356;1262;72497;-34
2023/12/07 03:40:33;;;;;;;4.10;3.60;;;;;;;16.35;52.73;98255.62;105593;1263;61170;-34
2023/12/07 03:43:03;;;;;;;3.70;3.40;;;;;;;16.35;52.72;98253.98;105231;1258;61193;-34
2023/12/07 03:45:31;;;;;;;4.40;3.70;;;;;;;16.34;52.79;98258.08;105291;1261;74627;-34
2023/12/07 03:47:58;;;;;;;3.80;3.30;;;;;;;16.34;52.75;98254.35;105384;1261;64074;-34
2023/12/07 03:50:26;;;;;;;4.50;3.50;;;;;;;16.34;52.76;98255.98;105450;1260;72676;-34
2023/12/07 03:52:53;;;;;;;3.90;3.50;;;;;;;16.34;52.74;98256.14;105569;1261;61259;-34
2023/12/07 03:55:20;;;;;;;3.80;3.50;;;;;;;16.34;52.64;98261.77;105575;1258;61372;-34
2023/12/07 03:57:48;;;;;;;4.60;3.80;;;;;;;16.34;52.68;98259.21;105612;1261;74500;-34
2023/12/07 04:00:16;;;;;;;4.70;3.70;;;;;;;16.34;52.67;98256.30;105591;1260;65625;-34
2023/12/07 04:02:43;;;;;;;4.00;3.60;;;;;;;16.34;52.62;98257.88;105583;1262;72709;-34
2023/12/07 04:05:12;;;;;;;3.90;3.50;;;;;;;16.34;52.70;98258.36;105288;1263;61270;-35
2023/12/07 04:07:39;;;;;;;4.20;3.80;;;;;;;16.34;52.62;98253.55;105263;1262;61344;-33
2023/12/07 04:10:08;;;;;;;3.80;3.50;;;;;;;16.33;52.65;98254.16;105156;1258;74625;-34
2023/12/07 04:12:35;;;;;;;4.70;3.60;;;;;;;16.33;52.64;98258.27;105232;1263;65994;-34
2023/12/07 04:15:02;;;;;;;3.80;3.50;;;;;;;16.33;52.66;98256.92;105180;1257;72581;-34
2023/12/07 04:17:30;;;;;;;3.80;3.50;;;;;;;16.32;52.68;98259.20;105220;1261;61880;-34
2023/12/07 04:19:58;;;;;;;4.00;3.60;;;;;;;16.33;52.65;98255.52;105411;1260;61322;-34
2023/12/07 04:22:25;;;;;;;3.60;3.30;;;;;;;16.33;52.65;98261.30;105477;1261;74548;-34
2023/12/07 04:24:53;;;;;;;3.60;3.30;;;;;;;16.32;52.69;98263.31;105341;1264;66187;-34
2023/12/07 04:27:20;;;;;;;3.60;3.30;;;;;;;16.32;52.66;98264.45;105227;1262;72418;-34
2023/12/07 04:29:47;;;;;;;4.20;3.60;;;;;;;16.32;52.65;98263.21;105221;1262;61218;-34
2023/12/07 04:32:15;;;;;;;3.80;3.50;;;;;;;16.32;52.64;98261.54;105187;1258;61287;-34
2023/12/07 04:34:42;;;;;;;4.80;3.90;;;;;;;16.32;52.64;98254.96;105193;1263;75137;-34
2023/12/07 04:37:10;;;;;;;4.00;3.60;;;;;;;16.32;52.68;98258.11;105184;1261;65849;-34
2023/12/07 04:39:37;;;;;;;4.10;3.60;;;;;;;16.32;52.59;98260.36;105338;1263;72644;-35
2023/12/07 04:42:05;;;;;;;3.60;3.30;;;;;;;16.32;52.66;98256.10;105228;1271;61234;-34
2023/12/07 04:44:32;;;;;;;4.10;3.70;;;;;;;16.31;52.69;98259.41;105236;1263;61344;-33
2023/12/07 04:46:59;;;;;;;4.10;3.70;;;;;;;16.31;52.60;98260.65;105227;1257;74429;-34
2023/12/07 04:49:27;;;;;;;3.80;3.40;;;;;;;16.32;52.66;98263.51;105243;1263;66238;-35
2023/12/07 04:51:54;;;;;;;3.50;3.20;;;;;;;16.31;52.68;98262.11;105112;1259;71630;-34
2023/12/07 04:54:21;;;;;;;4.40;3.60;;;;;;;16.31;52.85;98265.36;105267;1263;61348;-35
2023/12/07 04:56:48;;;;;;;4.00;3.50;;;;;;;16.31;52.68;98268.60;105458;1261;61286;-34
2023/12/07 04:59:16;;;;;;;5.70;3.90;;;;;;;16.32;52.66;98269.61;105579;1261;74613;-34
2023/12/07 05:01:43;;;;;;;3.70;3.40;;;;;;;16.32;52.75;98273.72;105549;1261;65554;-34
2023/12/07 05:04:11;;;;;;;3.90;3.50;;;;;;;16.32;52.68;98273.78;105548;1263;72792;-34
2023/12/07 05:06:38;;;;;;;3.90;3.50;;;;;;;16.32;52.66;98275.24;105428;1261;61281;-34
2023/12/07 05:09:09;;;;;;;3.60;3.30;;;;;;;16.32;52.52;98273.48;105194;1260;61273;-35
2023/12/07 05:11:37;;;;;;;4.00;3.60;;;;;;;16.32;52.59;98272.10;105339;1270;74624;-35
2023/12/07 05:14:04;;;;;;;3.80;3.50;;;;;;;16.32;52.58;98274.73;105393;1261;64943;-34
2023/12/07 05:16:32;;;;;;;4.10;3.60;;;;;;;16.32;52.57;98275.73;105557;1260;72563;-34
2023/12/07 05:19:00;;;;;;;3.70;3.40;;;;;;;16.32;52.58;98273.66;105319;1261;61231;-35
2023/12/07 05:21:28;;;;;;;3.80;3.40;;;;;;;16.33;52.64;98277.37;105593;1263;61211;-34
2023/12/07 05:23:55;;;;;;;3.90;3.50;;;;;;;16.33;52.58;98277.69;105274;1257;74661;-34
2023/12/07 05:26:22;;;;;;;3.70;3.30;;;;;;;16.33;52.51;98280.93;105218;1260;66244;-34
2023/12/07 05:28:51;;;;;;;3.90;2.90;;;;;;;16.33;52.57;98278.23;105391;1262;72656;-34
2023/12/07 05:31:18;;;;;;;3.80;3.50;;;;;;;16.34;52.60;98282.59;105307;1261;61271;-35
2023/12/07 05:33:46;;;;;;;3.60;3.30;;;;;;;16.33;52.52;98288.22;105249;1258;61237;-34
2023/12/07 05:36:13;;;;;;;4.00;3.50;;;;;;;16.33;52.55;98294.49;105412;1259;74610;-34
2023/12/07 05:38:41;;;;;;;3.80;3.50;;;;;;;16.34;52.52;98298.96;105276;1261;66048;-35
2023/12/07 05:41:09;;;;;;;4.50;3.70;;;;;;;16.34;52.56;98299.83;105221;1262;72585;-35
2023/12/07 05:43:36;;;;;;;3.50;3.20;;;;;;;16.34;52.50;98303.45;105086;1260;61209;-34
2023/12/07 05:46:04;;;;;;;4.50;3.30;;;;;;;16.34;52.52;98309.88;105151;1261;61246;-34
2023/12/07 05:48:31;;;;;;;4.00;3.60;;;;;;;16.34;52.53;98312.36;105311;1258;74918;-34
2023/12/07 05:50:59;;;;;;;4.50;3.70;;;;;;;16.34;52.49;98314.27;105181;1260;66343;-34
2023/12/07 05:53:26;;;;;;;4.30;3.60;;;;;;;16.33;52.55;98314.11;105144;1257;72693;-34
2023/12/07 05:55:54;;;;;;;3.70;3.40;;;;;;;16.34;52.57;98312.80;105099;1260;61241;-33
2023/12/07 05:58:22;;;;;;;4.80;3.70;;;;;;;16.33;52.64;98311.95;105383;1257;61280;-35
2023/12/07 06:00:49;;;;;;;4.10;3.70;;;;;;;16.34;52.68;98318.44;109030;1257;74663;-33
2023/12/07 06:03:16;;;;;;;4.30;3.60;;;;;;;16.34;52.69;98322.70;109039;1257;64815;-33
2023/12/07 06:05:45;;;;;;;4.30;3.90;;;;;;;16.34;52.76;98326.52;109050;1257;72589;-33
2023/12/07 06:08:12;;;;;;;4.50;4.10;;;;;;;16.35;52.76;98331.41;109011;1257;60296;-36
2023/12/07 06:10:39;;;;;;;4.70;4.30;;;;;;;16.36;52.82;98332.67;107553;1258;61263;-35
2023/12/07 06:13:07;;;;;;;7.00;4.30;;;;;;;16.39;52.77;98338.20;105142;1260;75149;-35
2023/12/07 06:15:35;;;;;;;5.40;4.60;;;;;;;16.41;52.82;98338.84;105792;1258;65541;-34
2023/12/07 06:18:03;;;;;;;5.60;4.70;;;;;;;16.46;53.56;98338.26;105312;1261;72581;-36
2023/12/07 06:20:30;;;;;;;6.70;4.30;;;;;;;16.51;53.95;98340.05;105618;1260;61322;-36
2023/12/07 06:22:58;;;;;;;4.80;4.10;;;;;;;16.56;54.31;98342.39;105064;1257;61284;-33
2023/12/07 06:25:25;;;;;;;5.10;4.20;;;;;;;16.61;54.40;98342.50;105203;1261;74840;-34
2023/12/07 06:27:53;;;;;;;4.90;4.40;;;;;;;16.65;54.36;98348.03;105038;1258;66005;-33
2023/12/07 06:30:20;;;;;;;5.40;4.20;;;;;;;16.69;54.55;98347.73;105250;1262;72597;-30
2023/12/07 06:32:48;;;;;;;4.70;4.10;;;;;;;16.73;54.66;98351.52;105020;1271;61280;-33
2023/12/07 06:35:17;;;;;;;5.40;4.30;;;;;;;16.75;54.72;98357.17;105233;1258;61265;-32
2023/12/07 06:37:45;;;;;;;4.60;4.10;;;;;;;16.76;54.74;98361.10;104857;1257;73669;-34
2023/12/07 06:40:12;;;;;;;4.60;4.00;;;;;;;16.78;54.82;98365.52;105310;1260;67549;-32
2023/12/07 06:42:40;;;;;;;5.10;4.20;;;;;;;16.80;54.69;98365.04;105213;1261;72630;-31
2023/12/07 06:45:10;;;;;;;5.80;4.40;;;;;;;16.81;54.72;98374.36;105091;1257;61317;-34
2023/12/07 06:47:38;;;;;;;7.10;4.30;;;;;;;16.82;54.68;98374.09;105330;1260;61298;-34
2023/12/07 06:50:09;;;;;;;6.20;4.30;;;;;;;16.84;54.64;98380.36;105107;1260;75418;-34
2023/12/07 06:52:37;;;;;;;6.50;4.00;;;;;;;16.85;54.66;98378.93;105280;1257;65083;-31
2023/12/07 06:55:06;;;;;;;6.20;4.40;;;;;;;16.86;54.50;98386.80;105178;1258;72714;-34
2023/12/07 06:57:33;;;;;;;6.90;4.30;;;;;;;16.85;54.50;98387.08;105415;1261;61372;-32
2023/12/07 07:00:05;;;;;;;4.70;4.20;;;;;;;16.85;54.36;98395.52;105003;1256;193735;-35
2023/12/07 07:02:33;;;;;;;5.50;4.50;;;;;;;16.85;54.24;98400.06;105045;1260;74599;-35
2023/12/07 07:05:01;;;;;;;4.90;4.40;;;;;;;16.85;54.15;98399.90;105346;1257;66285;-33
2023/12/07 07:07:31;;;;;;;6.60;4.40;;;;;;;16.86;54.13;98395.61;105347;1258;72662;-35
2023/12/07 07:09:59;;;;;;;4.80;4.10;;;;;;;16.87;54.18;98402.13;105043;1260;61355;-32
2023/12/07 07:12:27;;;;;;;5.50;4.20;;;;;;;16.88;54.29;98399.16;106136;1259;61424;-33
2023/12/07 07:14:54;;;;;;;5.50;4.40;;;;;;;16.89;54.46;98400.69;105011;1264;74576;-35
2023/12/07 07:17:23;;;;;;;6.10;4.20;;;;;;;16.92;54.46;98398.34;105214;1260;64981;-35
2023/12/07 07:19:55;;;;;;;5.50;3.80;;;;;;;16.95;54.51;98395.45;104848;1257;73674;-36
2023/12/07 07:22:22;;;;;;;6.00;4.30;;;;;;;16.98;54.62;98396.13;104995;1258;61955;-35
2023/12/07 07:24:52;;;;;;;7.70;4.10;;;;;;;17.01;54.69;98401.27;105006;1257;61246;-34
2023/12/07 07:27:19;;;;;;;5.80;4.20;;;;;;;17.03;54.75;98401.20;105233;1261;74482;-34
2023/12/07 07:29:47;;;;;;;5.00;4.40;;;;;;;17.05;54.80;98403.23;105446;1261;64834;-37
2023/12/07 07:32:16;;;;;;;4.70;3.90;;;;;;;17.07;54.82;98399.09;105310;1263;72788;-33
2023/12/07 07:34:45;;;;;;;5.00;4.30;;;;;;;17.11;54.85;98395.36;105108;1263;61375;-33
2023/12/07 07:37:13;;;;;;;6.10;4.50;;;;;;;17.15;55.31;98397.70;105193;1257;61340;-32
2023/12/07 07:39:41;;;;;;;5.20;4.10;;;;;;;17.20;55.67;98396.06;107107;1257;74558;-35
2023/12/07 07:42:11;;;;;;;5.20;4.20;;;;;;;17.26;55.76;98392.73;105285;1257;66085;-35
2023/12/07 07:44:38;;;;;;;5.70;4.40;;;;;;;17.30;55.73;98393.00;105130;1257;73439;-36
2023/12/07 07:47:06;;;;;;;6.00;4.20;;;;;;;17.34;55.82;98385.41;108067;1257;61378;-34
2023/12/07 07:49:33;;;;;;;5.00;4.50;;;;;;;17.36;55.75;98382.25;105048;1261;61903;-33
2023/12/07 07:52:01;;;;;;;7.40;4.30;;;;;;;17.38;55.69;98390.17;105239;1261;74697;-34
2023/12/07 07:54:29;;;;;;;4.50;3.90;;;;;;;17.41;55.70;98387.33;105107;1263;66496;-36
2023/12/07 07:56:57;;;;;;;4.80;3.90;;;;;;;17.43;55.63;98390.48;105215;1258;72657;-35
2023/12/07 07:59:24;;;;;;;4.80;4.00;;;;;;;17.45;55.78;98393.00;105164;1261;61310;-35
2023/12/07 08:01:52;;;;;;;4.80;3.90;;;;;;;17.47;55.72;98393.01;108836;1257;61066;-35
2023/12/07 08:04:19;;;;;;;5.20;4.10;;;;;;;17.48;55.71;98389.05;105175;1257;74375;-35
2023/12/07 08:06:46;;;;;;;4.70;3.70;;;;;;;17.50;55.65;98394.62;105191;1261;66204;-34
2023/12/07 08:09:14;;;;;;;4.30;3.90;;;;;;;17.52;55.72;98397.89;105134;1261;72332;-33
2023/12/07 08:11:42;;;;;;;4.40;3.90;;;;;;;17.54;55.70;98406.80;105498;1261;61222;-35
2023/12/07 08:14:09;;;;;;;4.10;3.60;;;;;;;17.55;55.66;98405.14;104993;1257;61369;-33
2023/12/07 08:16:37;;;;;;;7.20;3.90;;;;;;;17.56;55.67;98405.11;108985;1257;74649;-35
2023/12/07 08:19:05;;;;;;;5.40;3.70;;;;;;;17.58;55.61;98407.42;105894;1257;65900;-35
2023/12/07 08:21:32;;;;;;;4.70;3.90;;;;;;;17.59;55.56;98410.09;105213;1257;72610;-34
2023/12/07 08:23:59;;;;;;;4.40;3.80;;;;;;;17.61;55.44;98411.93;105017;1262;61317;-33
2023/12/07 08:26:27;;;;;;;9.50;3.90;;;;;;;17.61;55.35;98415.77;107398;1258;61149;-34
2023/12/07 08:28:56;;;;;;;6.80;3.70;;;;;;;17.63;55.37;98415.65;106363;1263;74346;-37
2023/12/07 08:31:24;;;;;;;4.50;3.50;;;;;;;17.63;55.33;98418.33;105698;1260;66257;-35
2023/12/07 08:33:51;;;;;;;5.40;3.80;;;;;;;17.64;55.28;98415.55;105179;1257;72599;-35
2023/12/07 08:36:19;;;;;;;4.00;3.60;;;;;;;17.65;55.19;98413.35;105241;1261;61367;-35
2023/12/07 08:38:47;;;;;;;7.40;4.00;;;;;;;17.66;55.14;98412.61;105209;1257;61275;-35
2023/12/07 08:41:14;;;;;;;4.50;3.50;;;;;;;17.67;55.19;98415.39;105192;1258;74422;-35
2023/12/07 08:43:41;;;;;;;5.90;3.50;;;;;;;17.68;55.27;98415.58;105495;1260;66255;-34
2023/12/07 08:46:09;;;;;;;5.20;3.90;;;;;;;17.68;55.30;98420.70;105344;1257;73224;-36
2023/12/07 08:48:37;;;;;;;6.20;3.30;;;;;;;17.69;55.32;98416.67;105321;1259;61241;-35
2023/12/07 08:51:09;;;;;;;6.70;4.00;;;;;;;17.69;55.32;98416.23;105193;1258;61276;-34
2023/12/07 08:53:38;;;;;;;4.80;3.60;;;;;;;17.70;55.31;98418.27;105407;1257;74361;-34
2023/12/07 08:56:06;;;;;;;4.20;3.60;;;;;;;17.70;55.37;98417.34;105206;1257;67451;-35
2023/12/07 08:58:33;;;;;;;4.00;3.60;;;;;;;17.70;55.23;98418.04;105262;1260;71718;-35
2023/12/07 09:01:01;;;;;;;4.90;3.70;;;;;;;17.70;55.25;98417.91;105157;1260;61229;-33
2023/12/07 09:03:31;;;;;;;6.00;3.80;;;;;;;17.70;55.11;98415.59;105101;1258;61381;-34
2023/12/07 09:06:00;;;;;;;6.90;3.80;;;;;;;17.71;55.12;98412.98;105213;1257;74404;-35
2023/12/07 09:08:28;;;;;;;4.40;3.40;;;;;;;17.70;55.02;98413.05;105005;1260;67391;-35
2023/12/07 09:10:56;;;;;;;5.80;3.30;;;;;;;17.70;54.99;98416.29;105096;1257;73508;-35
2023/12/07 09:13:24;;;;;;;4.40;3.80;;;;;;;17.70;55.07;98412.88;105032;1262;61139;-34
2023/12/07 09:15:53;;;;;;;4.20;3.80;;;;;;;17.70;54.99;98417.29;104910;1258;61214;-33
2023/12/07 09:18:21;;;;;;;4.90;3.80;;;;;;;17.70;54.98;98416.84;105283;1257;75479;-35
2023/12/07 09:20:49;;;;;;;4.20;3.80;;;;;;;17.70;54.86;98415.88;104898;1262;64817;-35
2023/12/07 09:23:16;;;;;;;3.80;3.30;;;;;;;17.69;54.77;98418.02;108945;1257;73565;-35
2023/12/07 09:25:43;;;;;;;4.30;3.90;;;;;;;17.69;54.75;98416.48;108986;1257;61411;-35
2023/12/07 09:28:11;;;;;;;5.30;4.20;;;;;;;17.70;54.72;98416.27;109000;1257;59003;-35
2023/12/07 09:30:38;;;;;;;4.20;3.80;;;;;;;17.70;54.64;98415.90;109014;1256;75524;-36
2023/12/07 09:33:06;;;;;;;4.20;3.80;;;;;;;17.71;54.63;98409.58;109046;1257;64831;-36
2023/12/07 09:35:34;;;;;;;4.50;3.90;;;;;;;17.71;54.68;98415.92;106244;1260;72558;-35
2023/12/07 09:38:02;;;;;;;6.10;3.70;;;;;;;17.72;54.63;98412.96;106980;1257;61351;-34
2023/12/07 09:40:30;;;;;;;4.40;3.90;;;;;;;17.73;54.55;98409.36;105318;1258;61794;-35
2023/12/07 09:42:57;;;;;;;4.10;3.70;;;;;;;17.73;54.40;98402.30;105533;1257;75555;-34
2023/12/07 09:45:25;;;;;;;4.90;3.80;;;;;;;17.73;54.33;98404.41;105331;1257;67136;-36
2023/12/07 09:47:55;;;;;;;4.20;3.80;;;;;;;17.73;54.30;98397.27;105073;1258;74363;-37
2023/12/07 09:50:27;;;;;;;4.20;3.70;;;;;;;17.73;54.21;98396.64;105111;1260;61252;-38
2023/12/07 09:52:56;;;;;;;4.60;3.50;;;;;;;17.73;54.17;98391.77;105218;1258;61295;-35
2023/12/07 09:55:35;;;;;;;6.70;3.60;;;;;;;17.72;54.10;98391.05;105477;1258;75283;-35
2023/12/07 09:58:05;;;;;;;5.20;3.90;;;;;;;17.71;53.98;98387.52;105260;1260;65700;-34
2023/12/07 10:00:35;;;;;;;4.00;3.60;;;;;;;17.70;53.99;98391.91;105392;1259;72321;-34
2023/12/07 10:03:04;;;;;;;5.60;3.80;;;;;;;17.69;53.87;98388.69;105220;1257;61264;-35
2023/12/07 10:05:31;;;;;;;6.20;3.70;;;;;;;17.69;53.97;98386.91;105108;1260;61215;-36
2023/12/07 10:07:59;;;;;;;4.10;3.50;;;;;;;17.69;54.08;98386.44;105308;1257;73724;-35
2023/12/07 10:10:26;;;;;;;4.60;3.90;;;;;;;17.68;54.12;98379.27;105114;1256;65817;-33
2023/12/07 10:12:55;;;;;;;6.00;4.10;;;;;;;17.67;54.06;98380.92;105189;1258;73800;-35
2023/12/07 10:15:23;;;;;;;6.10;4.00;;;;;;;17.65;54.01;98380.18;106400;1258;61230;-36
2023/12/07 10:17:56;;;;;;;5.70;4.10;;;;;;;17.65;54.05;98378.30;105427;1258;61175;-34
2023/12/07 10:20:25;;;;;;;5.10;4.40;;;;;;;17.64;53.95;98379.89;105257;1258;73797;-36
2023/12/07 10:23:09;;;;;;;5.20;4.20;;;;;;;17.64;53.93;98373.90;105506;1258;67294;-36
2023/12/07 10:25:40;;;;;;;4.60;4.20;;;;;;;17.64;53.92;98372.61;105642;1257;73692;-35
2023/12/07 10:28:11;;;;;;;6.20;3.90;;;;;;;17.64;53.99;98371.38;105172;1261;61234;-33
2023/12/07 10:30:40;;;;;;;4.60;4.00;;;;;;;17.65;54.11;98373.48;105766;1257;61201;-35
2023/12/07 10:33:10;;;;;;;4.80;4.20;;;;;;;17.65;54.12;98373.83;105359;1257;73051;-34
2023/12/07 10:35:41;;;;;;;5.30;4.10;;;;;;;17.66;54.25;98371.75;105789;1260;66974;-35
2023/12/07 10:38:09;;;;;;;8.20;4.20;;;;;;;17.66;54.23;98372.16;105325;1258;72606;-34
2023/12/07 10:40:36;;;;;;;6.50;3.80;;;;;;;17.67;54.34;98368.09;105255;1260;61130;-44
2023/12/07 10:43:05;;;;;;;4.30;3.80;;;;;;;17.67;54.39;98364.77;105203;1257;61219;-34
2023/12/07 10:45:34;;;;;;;6.70;3.70;;;;;;;17.67;54.50;98368.50;105746;1257;75619;-35
2023/12/07 10:48:04;;;;;;;4.70;4.30;;;;;;;17.68;54.50;98362.48;105358;1260;65415;-34
2023/12/07 10:50:35;;;;;;;4.40;3.80;;;;;;;17.68;54.59;98365.83;105851;1257;72672;-36
2023/12/07 10:53:08;;;;;;;5.40;3.80;;;;;;;17.68;54.57;98363.89;105204;1260;61377;-34
2023/12/07 10:55:48;;;;;;;4.40;4.00;;;;;;;17.69;54.51;98364.52;105660;1259;61252;-35
2023/12/07 10:58:16;;;;;;;4.50;4.10;;;;;;;17.69;54.48;98362.75;105100;1257;75303;-34
2023/12/07 11:00:46;;;;;;;5.20;4.00;;;;;;;17.70;54.45;98358.45;105519;1262;67124;-34
2023/12/07 11:03:18;;;;;;;5.50;4.40;;;;;;;17.70;54.51;98355.29;105060;1263;70178;-34
2023/12/07 11:05:47;;;;;;;4.20;3.80;;;;;;;17.71;54.56;98349.36;105251;1257;61260;-32
2023/12/07 11:08:29;;;;;;;5.00;3.70;;;;;;;17.72;54.48;98351.71;105341;1257;61294;-33
2023/12/07 11:11:17;;;;;;;3.90;3.60;;;;;;;17.72;54.60;98351.36;105071;1261;76200;-35
2023/12/07 11:13:49;;;;;;;3.80;3.50;;;;;;;17.72;54.50;98350.56;105312;1257;66968;-34
2023/12/07 11:16:16;;;;;;;5.30;4.00;;;;;;;17.71;54.43;98351.23;105274;1257;73412;-34
2023/12/07 11:18:44;;;;;;;4.20;3.80;;;;;;;17.70;54.30;98351.59;105208;1258;61262;-34
2023/12/07 11:21:11;;;;;;;4.50;4.00;;;;;;;17.70;54.29;98353.84;105292;1260;61267;-35
2023/12/07 11:23:39;;;;;;;4.70;3.90;;;;;;;17.69;54.21;98355.55;105170;1258;74712;-34
2023/12/07 11:26:06;;;;;;;4.20;3.80;;;;;;;17.68;54.20;98350.81;105263;1259;66258;-36
2023/12/07 11:28:38;;;;;;;5.90;4.10;;;;;;;17.67;54.15;98347.76;105121;1257;73610;-34